sensor_id;sensor_type;location;lat;lon;timestamp;P1;durP1;ratioP1;P2;durP2;ratioP2
7941;SDS011;4016;50.758;7.150;2022-09-29T00:00:25;3.17;;;2.97;;
7941;SDS011;4016;50.758;7.150;2022-09-29T00:05:26;2.93;;;2.73;;
7941;SDS011;4016;50.758;7.150;2022-09-29T00:10:27;2.80;;;2.60;;
7941;SDS011;4016;50.758;7.150;2022-09-29T00:15:27;2.50;;;2.30;;
7941;SDS011;4016;50.758;7.150;2022-09-29T00:20:27;3.23;;;2.93;;
7941;SDS011;4016;50.758;7.150;2022-09-29T00:25:28;4.67;;;2.90;;
7941;SDS011;4016;50.758;7.150;2022-09-29T00:30:30;2.53;;;2.27;;
7941;SDS011;4016;50.758;7.150;2022-09-29T00:35:30;2.90;;;2.63;;
7941;SDS011;4016;50.758;7.150;2022-09-29T00:40:31;3.03;;;2.60;;
7941;SDS011;4016;50.758;7.150;2022-09-29T00:45:31;3.30;;;3.00;;
7941;SDS011;4016;50.758;7.150;2022-09-29T00:50:41;3.07;;;2.77;;
7941;SDS011;4016;50.758;7.150;2022-09-29T00:55:47;2.50;;;2.30;;
7941;SDS011;4016;50.758;7.150;2022-09-29T01:00:51;2.60;;;2.40;;
7941;SDS011;4016;50.758;7.150;2022-09-29T01:05:55;6.27;;;3.10;;
7941;SDS011;4016;50.758;7.150;2022-09-29T01:10:58;3.10;;;2.80;;
7941;SDS011;4016;50.758;7.150;2022-09-29T01:16:01;2.97;;;2.77;;
7941;SDS011;4016;50.758;7.150;2022-09-29T01:26:37;3.13;;;2.90;;
7941;SDS011;4016;50.758;7.150;2022-09-29T01:37:10;2.40;;;2.30;;
7941;SDS011;4016;50.758;7.150;2022-09-29T01:42:18;2.53;;;2.33;;
7941;SDS011;4016;50.758;7.150;2022-09-29T01:52:27;2.87;;;2.60;;
7941;SDS011;4016;50.758;7.150;2022-09-29T01:57:46;2.80;;;2.60;;
7941;SDS011;4016;50.758;7.150;2022-09-29T02:02:51;3.07;;;2.83;;
7941;SDS011;4016;50.758;7.150;2022-09-29T02:07:55;2.73;;;2.47;;
7941;SDS011;4016;50.758;7.150;2022-09-29T02:12:59;2.30;;;2.20;;
7941;SDS011;4016;50.758;7.150;2022-09-29T02:18:02;2.87;;;2.63;;
7941;SDS011;4016;50.758;7.150;2022-09-29T02:23:10;2.17;;;2.00;;
7941;SDS011;4016;50.758;7.150;2022-09-29T02:28:10;2.87;;;2.60;;
7941;SDS011;4016;50.758;7.150;2022-09-29T02:33:16;4.43;;;1.97;;
7941;SDS011;4016;50.758;7.150;2022-09-29T02:38:42;2.40;;;2.20;;
7941;SDS011;4016;50.758;7.150;2022-09-29T02:59:54;2.50;;;2.30;;
7941;SDS011;4016;50.758;7.150;2022-09-29T03:05:05;2.63;;;2.43;;
7941;SDS011;4016;50.758;7.150;2022-09-29T03:10:12;1.63;;;1.60;;
7941;SDS011;4016;50.758;7.150;2022-09-29T03:15:14;3.03;;;2.57;;
7941;SDS011;4016;50.758;7.150;2022-09-29T03:20:15;5.70;;;4.67;;
7941;SDS011;4016;50.758;7.150;2022-09-29T03:25:15;8.60;;;5.27;;
7941;SDS011;4016;50.758;7.150;2022-09-29T03:30:16;14.53;;;6.07;;
7941;SDS011;4016;50.758;7.150;2022-09-29T03:35:17;11.27;;;4.30;;
7941;SDS011;4016;50.758;7.150;2022-09-29T03:40:18;4.07;;;3.67;;
7941;SDS011;4016;50.758;7.150;2022-09-29T03:45:18;3.03;;;2.73;;
7941;SDS011;4016;50.758;7.150;2022-09-29T03:50:19;2.67;;;2.47;;
7941;SDS011;4016;50.758;7.150;2022-09-29T03:55:19;2.93;;;2.20;;
7941;SDS011;4016;50.758;7.150;2022-09-29T04:00:19;2.60;;;2.40;;
7941;SDS011;4016;50.758;7.150;2022-09-29T04:05:20;3.03;;;2.27;;
7941;SDS011;4016;50.758;7.150;2022-09-29T04:10:20;2.73;;;2.50;;
7941;SDS011;4016;50.758;7.150;2022-09-29T04:15:21;2.87;;;2.67;;
7941;SDS011;4016;50.758;7.150;2022-09-29T04:20:21;2.80;;;2.60;;
7941;SDS011;4016;50.758;7.150;2022-09-29T04:25:22;4.73;;;3.07;;
7941;SDS011;4016;50.758;7.150;2022-09-29T04:30:23;3.47;;;3.13;;
7941;SDS011;4016;50.758;7.150;2022-09-29T04:35:23;3.80;;;3.33;;
7941;SDS011;4016;50.758;7.150;2022-09-29T04:40:24;4.93;;;3.20;;
7941;SDS011;4016;50.758;7.150;2022-09-29T04:45:24;4.47;;;3.67;;
7941;SDS011;4016;50.758;7.150;2022-09-29T04:50:25;4.70;;;3.30;;
7941;SDS011;4016;50.758;7.150;2022-09-29T04:55:25;4.10;;;3.50;;
7941;SDS011;4016;50.758;7.150;2022-09-29T05:00:26;6.47;;;3.83;;
7941;SDS011;4016;50.758;7.150;2022-09-29T05:05:26;3.93;;;3.53;;
7941;SDS011;4016;50.758;7.150;2022-09-29T05:10:27;5.57;;;3.97;;
7941;SDS011;4016;50.758;7.150;2022-09-29T05:15:27;3.47;;;3.17;;
7941;SDS011;4016;50.758;7.150;2022-09-29T05:20:27;3.47;;;3.17;;
7941;SDS011;4016;50.758;7.150;2022-09-29T05:25:28;4.33;;;3.43;;
7941;SDS011;4016;50.758;7.150;2022-09-29T05:30:29;3.53;;;3.17;;
7941;SDS011;4016;50.758;7.150;2022-09-29T05:35:29;3.80;;;3.50;;
7941;SDS011;4016;50.758;7.150;2022-09-29T05:40:30;4.50;;;3.93;;
7941;SDS011;4016;50.758;7.150;2022-09-29T05:45:30;9.20;;;5.77;;
7941;SDS011;4016;50.758;7.150;2022-09-29T05:50:30;17.30;;;8.17;;
7941;SDS011;4016;50.758;7.150;2022-09-29T05:55:31;6.30;;;4.87;;
7941;SDS011;4016;50.758;7.150;2022-09-29T06:00:32;7.13;;;5.20;;
7941;SDS011;4016;50.758;7.150;2022-09-29T06:05:32;5.30;;;4.70;;
7941;SDS011;4016;50.758;7.150;2022-09-29T06:10:37;6.90;;;5.37;;
7941;SDS011;4016;50.758;7.150;2022-09-29T06:15:38;6.93;;;5.30;;
7941;SDS011;4016;50.758;7.150;2022-09-29T06:20:38;8.20;;;5.20;;
7941;SDS011;4016;50.758;7.150;2022-09-29T06:25:38;7.30;;;5.57;;
7941;SDS011;4016;50.758;7.150;2022-09-29T06:30:39;6.03;;;4.60;;
7941;SDS011;4016;50.758;7.150;2022-09-29T06:35:44;6.20;;;5.03;;
7941;SDS011;4016;50.758;7.150;2022-09-29T06:41:06;7.40;;;6.10;;
7941;SDS011;4016;50.758;7.150;2022-09-29T06:46:07;9.43;;;6.43;;
7941;SDS011;4016;50.758;7.150;2022-09-29T06:51:07;6.87;;;5.43;;
7941;SDS011;4016;50.758;7.150;2022-09-29T06:56:08;7.63;;;5.73;;
7941;SDS011;4016;50.758;7.150;2022-09-29T07:01:08;8.03;;;6.27;;
7941;SDS011;4016;50.758;7.150;2022-09-29T07:06:09;8.87;;;5.83;;
7941;SDS011;4016;50.758;7.150;2022-09-29T07:11:10;9.07;;;5.73;;
7941;SDS011;4016;50.758;7.150;2022-09-29T07:16:11;7.30;;;5.47;;
7941;SDS011;4016;50.758;7.150;2022-09-29T07:21:13;7.20;;;5.10;;
7941;SDS011;4016;50.758;7.150;2022-09-29T07:26:17;9.20;;;6.53;;
7941;SDS011;4016;50.758;7.150;2022-09-29T07:31:19;13.23;;;6.73;;
7941;SDS011;4016;50.758;7.150;2022-09-29T07:36:20;8.00;;;6.80;;
7941;SDS011;4016;50.758;7.150;2022-09-29T07:41:21;9.83;;;6.77;;
7941;SDS011;4016;50.758;7.150;2022-09-29T07:46:21;8.87;;;7.97;;
7941;SDS011;4016;50.758;7.150;2022-09-29T07:51:22;7.53;;;6.47;;
7941;SDS011;4016;50.758;7.150;2022-09-29T07:56:22;8.90;;;6.67;;
7941;SDS011;4016;50.758;7.150;2022-09-29T08:01:23;7.57;;;6.47;;
7941;SDS011;4016;50.758;7.150;2022-09-29T08:06:24;10.10;;;7.53;;
7941;SDS011;4016;50.758;7.150;2022-09-29T08:11:26;8.20;;;6.53;;
7941;SDS011;4016;50.758;7.150;2022-09-29T08:16:27;7.40;;;6.33;;
7941;SDS011;4016;50.758;7.150;2022-09-29T08:21:28;9.10;;;7.17;;
7941;SDS011;4016;50.758;7.150;2022-09-29T08:26:31;8.60;;;6.60;;
7941;SDS011;4016;50.758;7.150;2022-09-29T08:31:34;9.70;;;7.17;;
7941;SDS011;4016;50.758;7.150;2022-09-29T08:36:36;10.47;;;7.30;;
7941;SDS011;4016;50.758;7.150;2022-09-29T08:52:34;7.23;;;6.50;;
7941;SDS011;4016;50.758;7.150;2022-09-29T08:57:35;7.40;;;6.53;;
7941;SDS011;4016;50.758;7.150;2022-09-29T09:02:40;7.27;;;6.10;;
7941;SDS011;4016;50.758;7.150;2022-09-29T09:08:10;7.20;;;6.30;;
7941;SDS011;4016;50.758;7.150;2022-09-29T09:13:48;7.63;;;6.17;;
7941;SDS011;4016;50.758;7.150;2022-09-29T09:19:06;9.57;;;6.77;;
7941;SDS011;4016;50.758;7.150;2022-09-29T09:24:27;7.10;;;6.27;;
7941;SDS011;4016;50.758;7.150;2022-09-29T09:29:46;6.87;;;5.97;;
7941;SDS011;4016;50.758;7.150;2022-09-29T09:40:02;7.00;;;6.20;;
7941;SDS011;4016;50.758;7.150;2022-09-29T09:45:15;8.00;;;5.90;;
7941;SDS011;4016;50.758;7.150;2022-09-29T09:50:39;5.47;;;4.87;;
7941;SDS011;4016;50.758;7.150;2022-09-29T09:55:41;6.40;;;5.27;;
7941;SDS011;4016;50.758;7.150;2022-09-29T10:01:01;6.20;;;4.83;;
7941;SDS011;4016;50.758;7.150;2022-09-29T10:06:05;6.07;;;5.20;;
7941;SDS011;4016;50.758;7.150;2022-09-29T10:11:26;5.97;;;4.80;;
7941;SDS011;4016;50.758;7.150;2022-09-29T10:17:04;4.87;;;4.27;;
7941;SDS011;4016;50.758;7.150;2022-09-29T10:22:00;5.60;;;4.60;;
7941;SDS011;4016;50.758;7.150;2022-09-29T10:27:17;5.20;;;4.60;;
7941;SDS011;4016;50.758;7.150;2022-09-29T10:32:24;4.70;;;4.20;;
7941;SDS011;4016;50.758;7.150;2022-09-29T10:37:36;7.30;;;4.40;;
7941;SDS011;4016;50.758;7.150;2022-09-29T10:42:40;4.60;;;4.20;;
7941;SDS011;4016;50.758;7.150;2022-09-29T10:47:46;5.27;;;4.20;;
7941;SDS011;4016;50.758;7.150;2022-09-29T10:52:57;4.77;;;4.13;;
7941;SDS011;4016;50.758;7.150;2022-09-29T11:03:21;4.17;;;3.77;;
7941;SDS011;4016;50.758;7.150;2022-09-29T11:08:25;4.33;;;3.93;;
7941;SDS011;4016;50.758;7.150;2022-09-29T11:18:34;4.00;;;3.57;;
7941;SDS011;4016;50.758;7.150;2022-09-29T11:29:10;4.77;;;3.57;;
7941;SDS011;4016;50.758;7.150;2022-09-29T11:44:59;3.73;;;3.30;;
7941;SDS011;4016;50.758;7.150;2022-09-29T11:55:22;4.20;;;3.40;;
7941;SDS011;4016;50.758;7.150;2022-09-29T12:11:06;3.40;;;3.10;;
7941;SDS011;4016;50.758;7.150;2022-09-29T12:16:19;2.53;;;2.20;;
7941;SDS011;4016;50.758;7.150;2022-09-29T12:21:31;2.57;;;2.37;;
7941;SDS011;4016;50.758;7.150;2022-09-29T12:26:39;2.73;;;2.53;;
7941;SDS011;4016;50.758;7.150;2022-09-29T12:31:42;2.43;;;2.13;;
7941;SDS011;4016;50.758;7.150;2022-09-29T12:36:48;2.40;;;2.20;;
7941;SDS011;4016;50.758;7.150;2022-09-29T12:47:37;1.87;;;1.77;;
7941;SDS011;4016;50.758;7.150;2022-09-29T12:52:57;2.30;;;2.10;;
7941;SDS011;4016;50.758;7.150;2022-09-29T12:58:05;2.38;;;2.15;;
7941;SDS011;4016;50.758;7.150;2022-09-29T13:03:28;3.15;;;1.83;;
7941;SDS011;4016;50.758;7.150;2022-09-29T13:09:41;2.92;;;2.42;;
7941;SDS011;4016;50.758;7.150;2022-09-29T13:14:31;2.78;;;2.05;;
7941;SDS011;4016;50.758;7.150;2022-09-29T13:30:15;3.85;;;2.40;;
7941;SDS011;4016;50.758;7.150;2022-09-29T13:35:19;1.92;;;1.83;;
7941;SDS011;4016;50.758;7.150;2022-09-29T13:40:24;1.98;;;1.88;;
7941;SDS011;4016;50.758;7.150;2022-09-29T13:50:46;2.80;;;2.05;;
7941;SDS011;4016;50.758;7.150;2022-09-29T14:00:54;1.48;;;1.33;;
7941;SDS011;4016;50.758;7.150;2022-09-29T14:06:04;1.65;;;1.55;;
7941;SDS011;4016;50.758;7.150;2022-09-29T14:16:27;1.92;;;1.80;;
7941;SDS011;4016;50.758;7.150;2022-09-29T14:27:12;1.70;;;1.60;;
7941;SDS011;4016;50.758;7.150;2022-09-29T14:32:20;1.60;;;1.50;;
7941;SDS011;4016;50.758;7.150;2022-09-29T14:37:26;2.17;;;1.90;;
7941;SDS011;4016;50.758;7.150;2022-09-29T14:42:27;2.37;;;1.70;;
7941;SDS011;4016;50.758;7.150;2022-09-29T14:53:16;2.03;;;1.83;;
7941;SDS011;4016;50.758;7.150;2022-09-29T14:58:22;1.77;;;1.67;;
7941;SDS011;4016;50.758;7.150;2022-09-29T15:03:26;1.57;;;1.47;;
7941;SDS011;4016;50.758;7.150;2022-09-29T15:08:37;1.57;;;1.47;;
7941;SDS011;4016;50.758;7.150;2022-09-29T15:13:38;2.33;;;2.13;;
7941;SDS011;4016;50.758;7.150;2022-09-29T15:28:55;2.90;;;1.67;;
7941;SDS011;4016;50.758;7.150;2022-09-29T15:33:55;1.67;;;1.27;;
7941;SDS011;4016;50.758;7.150;2022-09-29T15:39:00;1.43;;;1.33;;
7941;SDS011;4016;50.758;7.150;2022-09-29T15:44:13;2.50;;;1.03;;
7941;SDS011;4016;50.758;7.150;2022-09-29T15:49:21;0.90;;;0.90;;
7941;SDS011;4016;50.758;7.150;2022-09-29T15:54:29;1.37;;;1.20;;
7941;SDS011;4016;50.758;7.150;2022-09-29T15:59:37;1.00;;;1.00;;
7941;SDS011;4016;50.758;7.150;2022-09-29T16:04:37;1.03;;;0.90;;
7941;SDS011;4016;50.758;7.150;2022-09-29T16:09:39;1.20;;;1.10;;
7941;SDS011;4016;50.758;7.150;2022-09-29T16:14:40;1.93;;;1.83;;
7941;SDS011;4016;50.758;7.150;2022-09-29T16:19:41;1.07;;;1.03;;
7941;SDS011;4016;50.758;7.150;2022-09-29T16:24:51;1.63;;;1.50;;
7941;SDS011;4016;50.758;7.150;2022-09-29T16:30:03;0.97;;;0.97;;
7941;SDS011;4016;50.758;7.150;2022-09-29T16:40:38;1.60;;;1.50;;
7941;SDS011;4016;50.758;7.150;2022-09-29T16:45:39;1.70;;;1.37;;
7941;SDS011;4016;50.758;7.150;2022-09-29T16:50:44;1.70;;;1.60;;
7941;SDS011;4016;50.758;7.150;2022-09-29T16:55:54;1.73;;;1.63;;
7941;SDS011;4016;50.758;7.150;2022-09-29T17:01:07;5.73;;;4.27;;
7941;SDS011;4016;50.758;7.150;2022-09-29T17:06:08;1.70;;;1.60;;
7941;SDS011;4016;50.758;7.150;2022-09-29T17:11:09;2.27;;;2.10;;
7941;SDS011;4016;50.758;7.150;2022-09-29T17:16:10;1.80;;;1.70;;
7941;SDS011;4016;50.758;7.150;2022-09-29T17:21:17;2.23;;;2.03;;
7941;SDS011;4016;50.758;7.150;2022-09-29T17:26:19;1.67;;;1.57;;
7941;SDS011;4016;50.758;7.150;2022-09-29T17:31:41;2.60;;;1.97;;
7941;SDS011;4016;50.758;7.150;2022-09-29T17:36:42;1.57;;;1.47;;
7941;SDS011;4016;50.758;7.150;2022-09-29T17:41:43;2.13;;;2.03;;
7941;SDS011;4016;50.758;7.150;2022-09-29T17:46:44;3.13;;;2.30;;
7941;SDS011;4016;50.758;7.150;2022-09-29T17:51:45;2.70;;;1.70;;
7941;SDS011;4016;50.758;7.150;2022-09-29T17:56:46;2.30;;;2.10;;
7941;SDS011;4016;50.758;7.150;2022-09-29T18:01:46;2.13;;;1.83;;
7941;SDS011;4016;50.758;7.150;2022-09-29T18:06:49;3.50;;;2.07;;
7941;SDS011;4016;50.758;7.150;2022-09-29T18:11:50;2.40;;;2.20;;
7941;SDS011;4016;50.758;7.150;2022-09-29T18:16:50;4.43;;;2.60;;
7941;SDS011;4016;50.758;7.150;2022-09-29T18:21:54;2.87;;;2.63;;
7941;SDS011;4016;50.758;7.150;2022-09-29T18:26:55;2.53;;;2.33;;
7941;SDS011;4016;50.758;7.150;2022-09-29T18:31:56;3.17;;;2.70;;
7941;SDS011;4016;50.758;7.150;2022-09-29T18:36:56;2.93;;;2.73;;
7941;SDS011;4016;50.758;7.150;2022-09-29T18:41:56;3.53;;;2.93;;
7941;SDS011;4016;50.758;7.150;2022-09-29T18:46:57;2.80;;;2.60;;
7941;SDS011;4016;50.758;7.150;2022-09-29T18:51:57;3.13;;;2.77;;
7941;SDS011;4016;50.758;7.150;2022-09-29T18:56:58;2.70;;;2.50;;
7941;SDS011;4016;50.758;7.150;2022-09-29T19:02:00;3.40;;;2.80;;
7941;SDS011;4016;50.758;7.150;2022-09-29T19:07:00;3.60;;;3.10;;
7941;SDS011;4016;50.758;7.150;2022-09-29T19:12:01;2.77;;;2.57;;
7941;SDS011;4016;50.758;7.150;2022-09-29T19:17:01;3.33;;;2.80;;
7941;SDS011;4016;50.758;7.150;2022-09-29T19:22:01;4.20;;;3.20;;
7941;SDS011;4016;50.758;7.150;2022-09-29T19:27:02;4.50;;;3.30;;
7941;SDS011;4016;50.758;7.150;2022-09-29T19:32:02;3.73;;;3.30;;
7941;SDS011;4016;50.758;7.150;2022-09-29T19:37:03;4.07;;;3.20;;
7941;SDS011;4016;50.758;7.150;2022-09-29T19:42:04;4.50;;;3.37;;
7941;SDS011;4016;50.758;7.150;2022-09-29T19:47:05;3.47;;;3.00;;
7941;SDS011;4016;50.758;7.150;2022-09-29T19:52:07;5.47;;;3.50;;
7941;SDS011;4016;50.758;7.150;2022-09-29T19:57:10;3.73;;;3.13;;
7941;SDS011;4016;50.758;7.150;2022-09-29T20:02:13;3.27;;;2.87;;
7941;SDS011;4016;50.758;7.150;2022-09-29T20:07:14;3.10;;;2.87;;
7941;SDS011;4016;50.758;7.150;2022-09-29T20:12:14;3.17;;;2.87;;
7941;SDS011;4016;50.758;7.150;2022-09-29T20:17:14;4.33;;;3.07;;
7941;SDS011;4016;50.758;7.150;2022-09-29T20:22:15;3.27;;;2.90;;
7941;SDS011;4016;50.758;7.150;2022-09-29T20:27:15;3.10;;;2.80;;
7941;SDS011;4016;50.758;7.150;2022-09-29T20:32:16;3.10;;;2.80;;
7941;SDS011;4016;50.758;7.150;2022-09-29T20:37:18;4.57;;;3.20;;
7941;SDS011;4016;50.758;7.150;2022-09-29T20:42:18;4.03;;;3.30;;
7941;SDS011;4016;50.758;7.150;2022-09-29T20:47:19;4.07;;;3.20;;
7941;SDS011;4016;50.758;7.150;2022-09-29T20:52:22;3.03;;;2.73;;
7941;SDS011;4016;50.758;7.150;2022-09-29T20:57:22;4.07;;;3.13;;
7941;SDS011;4016;50.758;7.150;2022-09-29T21:02:23;4.00;;;3.40;;
7941;SDS011;4016;50.758;7.150;2022-09-29T21:07:23;5.37;;;3.63;;
7941;SDS011;4016;50.758;7.150;2022-09-29T21:12:36;3.67;;;3.37;;
7941;SDS011;4016;50.758;7.150;2022-09-29T21:17:36;5.83;;;3.60;;
7941;SDS011;4016;50.758;7.150;2022-09-29T21:22:37;4.10;;;3.70;;
7941;SDS011;4016;50.758;7.150;2022-09-29T21:27:37;3.47;;;3.17;;
7941;SDS011;4016;50.758;7.150;2022-09-29T21:32:38;3.50;;;2.77;;
7941;SDS011;4016;50.758;7.150;2022-09-29T21:37:38;3.87;;;3.27;;
7941;SDS011;4016;50.758;7.150;2022-09-29T21:42:39;4.33;;;3.70;;
7941;SDS011;4016;50.758;7.150;2022-09-29T21:47:39;4.07;;;3.67;;
7941;SDS011;4016;50.758;7.150;2022-09-29T21:52:58;4.20;;;3.43;;
7941;SDS011;4016;50.758;7.150;2022-09-29T21:57:58;4.20;;;3.70;;
7941;SDS011;4016;50.758;7.150;2022-09-29T22:02:59;4.90;;;3.80;;
7941;SDS011;4016;50.758;7.150;2022-09-29T22:07:59;4.23;;;3.83;;
7941;SDS011;4016;50.758;7.150;2022-09-29T22:13:00;4.13;;;3.67;;
7941;SDS011;4016;50.758;7.150;2022-09-29T22:18:00;3.73;;;3.43;;
7941;SDS011;4016;50.758;7.150;2022-09-29T22:23:01;3.77;;;3.47;;
7941;SDS011;4016;50.758;7.150;2022-09-29T22:28:01;5.53;;;4.03;;
7941;SDS011;4016;50.758;7.150;2022-09-29T22:33:02;4.93;;;4.43;;
7941;SDS011;4016;50.758;7.150;2022-09-29T22:38:03;4.63;;;4.23;;
7941;SDS011;4016;50.758;7.150;2022-09-29T22:43:04;5.10;;;4.37;;
7941;SDS011;4016;50.758;7.150;2022-09-29T22:48:07;4.87;;;4.13;;
7941;SDS011;4016;50.758;7.150;2022-09-29T22:53:07;4.50;;;4.07;;
7941;SDS011;4016;50.758;7.150;2022-09-29T22:58:08;4.30;;;3.90;;
7941;SDS011;4016;50.758;7.150;2022-09-29T23:03:09;4.27;;;3.83;;
7941;SDS011;4016;50.758;7.150;2022-09-29T23:08:10;4.33;;;3.90;;
7941;SDS011;4016;50.758;7.150;2022-09-29T23:13:11;4.67;;;3.83;;
7941;SDS011;4016;50.758;7.150;2022-09-29T23:18:11;4.57;;;3.70;;
7941;SDS011;4016;50.758;7.150;2022-09-29T23:23:12;5.20;;;3.90;;
7941;SDS011;4016;50.758;7.150;2022-09-29T23:28:12;4.57;;;4.13;;
7941;SDS011;4016;50.758;7.150;2022-09-29T23:33:13;3.97;;;3.57;;
7941;SDS011;4016;50.758;7.150;2022-09-29T23:38:13;4.67;;;3.87;;
7941;SDS011;4016;50.758;7.150;2022-09-29T23:43:32;4.10;;;3.70;;
7941;SDS011;4016;50.758;7.150;2022-09-29T23:48:33;3.50;;;3.17;;
7941;SDS011;4016;50.758;7.150;2022-09-29T23:53:33;4.47;;;3.90;;
7941;SDS011;4016;50.758;7.150;2022-09-29T23:58:34;5.40;;;3.93;;
